Bookmark and Share
Track history (hours):
 

Nieuw Amsterdam

Last reported at 2014-Apr-19 19:31 UTC. Time now 2014-Apr-19 19:45 UTC.
Position N 39°56' E 002°12'.

Length 285 m; draft 8 m.

Type: Ship. MMSI: 246648000.

NotesDate/timePositionNaut miles runAvg speedWind from/ knotsBaromVisibWave heightAir tempDewpointWater temp
2014-Apr-19 19:31N 39°56' E 002°12'1010.0
2014-Apr-19 18:30N 39°46' E 002°12'12 9.8
2014-Apr-19 17:14N 39°33' E 002°15'710.8
2014-Apr-19 16:33N 39°29' E 002°22'610.4
2014-Apr-19 16:00N 39°24' E 002°18'1330.2 140 / 231006.110.8 0.520.613.818.4
2014-Apr-19 15:33N 39°27' E 002°35'7 2.0
2014-Apr-19 12:17N 39°33' E 002°38'0 0.0
2014-Apr-19 11:34N 39°33' E 002°38'0 0.0
2014-Apr-19 10:34N 39°33' E 002°38'0 0.0
2014-Apr-19 09:25N 39°33' E 002°38'0 0.0
2014-Apr-19 08:34N 39°33' E 002°38'0 0.0
2014-Apr-19 07:33N 39°33' E 002°38'0 0.0
2014-Apr-19 06:33N 39°33' E 002°38'0 0.3
2014-Apr-19 05:33N 39°33' E 002°38'6 6.0
2014-Apr-19 04:33N 39°28' E 002°35'1111.3
2014-Apr-19 03:34N 39°19' E 002°26'1212.1
2014-Apr-19 02:33N 39°10' E 002°16'1211.6
2014-Apr-19 01:33N 39°01' E 002°07'1212.2
2014-Apr-19 00:33N 38°51' E 001°57'1211.9
2014-Apr-18 23:33N 38°42' E 001°47'1212.0
2014-Apr-18 22:33N 38°33' E 001°37'1312.3
2014-Apr-18 21:28N 38°31' E 001°20'1112.3
2014-Apr-18 20:32N 38°29' E 001°06'1313.5
2014-Apr-18 19:33N 38°27' E 000°49'5214.8
2014-Apr-18 16:04N 38°20' W 000°16'8106.0
2014-Apr-18 16:00N 38°18' W 000°06'1631.3 200 / 161011.610.8 0.517.714.218.9
2014-Apr-18 15:29N 38°19' W 000°26'14 1.3
2014-Apr-18 04:32N 38°05' W 000°23'2017.6
2014-Apr-18 03:25N 37°46' W 000°24'8 9.8
2014-Apr-18 02:33N 37°38' W 000°27'1717.0
2014-Apr-18 01:33N 37°26' W 000°42'1817.1
2014-Apr-18 00:30N 37°13' W 000°58'1717.2
2014-Apr-17 23:30N 37°02' W 001°15'1717.2
2014-Apr-17 22:32N 36°51' W 001°31'1717.3
2014-Apr-17 21:33N 36°40' W 001°47'2718.0
2014-Apr-17 20:03N 36°22' W 002°12'126 6.1
2014-Apr-16 23:33N 36°16' W 004°48'1212.4
2014-Apr-16 22:34N 36°11' W 005°02'1212.4
2014-Apr-16 21:33N 36°06' W 005°16'6 5.8
2014-Apr-16 20:32N 36°09' W 005°22'0 0.0
2014-Apr-16 19:32N 36°09' W 005°22'0 0.0
2014-Apr-16 18:29N 36°09' W 005°22'0 0.0
2014-Apr-16 17:32N 36°09' W 005°22'0 0.0
2014-Apr-16 16:32N 36°09' W 005°22'0 0.0
2014-Apr-16 15:32N 36°09' W 005°22'0 0.0
2014-Apr-16 14:29N 36°09' W 005°22'0 0.0
2014-Apr-16 13:32N 36°09' W 005°22'0 0.0
2014-Apr-16 12:32N 36°09' W 005°22'0 0.0
2014-Apr-16 11:32N 36°09' W 005°22'1 1.3
2014-Apr-16 10:33N 36°08' W 005°23'9 9.5
2014-Apr-16 09:34N 35°59' W 005°26'1814.8
2014-Apr-16 08:19N 35°54' W 005°48'1214.8
2014-Apr-16 07:31N 35°54' W 006°03'8114.6
2014-Apr-16 02:00N 36°00' W 007°42'15717.4 300 / 71017.0 5.4 17.014.618.0
2014-Apr-15 17:00N 36°24' W 010°54'2914.5 160 / 131016.110.8 0.517.212.918.7
2014-Apr-15 15:00N 36°24' W 011°30'16618.4 260 / 121016.010.8 0.517.212.720.2
2014-Apr-15 06:00N 36°48' W 014°54'2020.1 040 / 31013.910.8 16.312.121.5
2014-Apr-15 05:00N 36°54' W 015°18'40417.6 180 / 41013.0 16.112.720.0
2014-Apr-14 06:00N 37°48' W 023°42'13217.7 020 / 231012.7 1.514.0 9.320.5
2014-Apr-13 22:33N 38°07' W 026°27'1717.3
2014-Apr-13 21:34N 38°10' W 026°49'1717.0
2014-Apr-13 20:34N 38°12' W 027°10'1716.9
2014-Apr-13 19:33N 38°15' W 027°32'1717.0
2014-Apr-13 18:33N 38°17' W 027°53'1717.2
2014-Apr-13 17:33N 38°19' W 028°15'1616.3
2014-Apr-13 16:33N 38°27' W 028°33'6 6.1
2014-Apr-13 15:33N 38°32' W 028°37'0 0.0
2014-Apr-13 14:33N 38°32' W 028°37'0 0.0
2014-Apr-13 13:33N 38°32' W 028°37'0 0.0
2014-Apr-13 12:33N 38°32' W 028°37'0 0.1
2014-Apr-13 11:33N 38°32' W 028°37'0 0.1
2014-Apr-13 10:33N 38°32' W 028°37'0 0.0
2014-Apr-13 09:33N 38°32' W 028°37'0 0.0
2014-Apr-13 08:33N 38°32' W 028°37'0 0.4
2014-Apr-13 07:33N 38°32' W 028°37'1110.6
2014-Apr-13 06:34N 38°26' W 028°48'1414.2
2014-Apr-13 05:33N 38°23' W 029°05'1414.2
2014-Apr-13 04:33N 38°20' W 029°23'1414.3
2014-Apr-13 03:33N 38°17' W 029°41'1414.3
2014-Apr-13 02:33N 38°14' W 029°59'1414.3
2014-Apr-13 01:34N 38°11' W 030°17'1514.3
2014-Apr-13 00:29N 38°08' W 030°36'1414.3
2014-Apr-12 23:31N 38°05' W 030°53'3415.0
2014-Apr-12 21:14N 37°58' W 031°35'13214.2
2014-Apr-12 12:00N 37°30' W 034°18'5417.9 090 / 231025.1 5.4 0.516.510.620.0
2014-Apr-12 09:00N 37°18' W 035°24'1615.5 090 / 221024.710.8 0.514.810.420.5
2014-Apr-12 08:00N 37°12' W 035°42'35416.1 290 / 51019.010.8 15.011.721.0
2014-Apr-11 10:00N 36°00' W 042°54'5513.7 200 / 191020.010.8 0.519.2 2.021.0
2014-Apr-11 06:00N 35°48' W 044°00'36018.0 200 / 211023.010.8 2.017.011.319.0
2014-Apr-10 10:00N 34°36' W 051°12'0 0.0 180 / 321022.210.8 2.520.417.019.7
2014-Apr-10 09:00N 34°36' W 051°12'22417.2 180 / 311017.010.8 2.019.115.422.0
2014-Apr-09 20:00N 33°48' W 055°36'   180 / 301020.510.8 1.020.818.420.1

Dump ship's entire track history

sailing weather and tide predictions

Nieuw Amsterdam — PBWQ — position and weather